createdAt,value
2022-11-30T00:01:35.516Z,84.20
2022-11-30T00:04:02.166Z,83.30
2022-11-30T00:06:28.879Z,78.43
2022-11-30T00:08:58.300Z,77.03
2022-11-30T00:11:29.233Z,82.03
2022-11-30T00:13:57.866Z,78.57
2022-11-30T00:16:24.623Z,69.40
2022-11-30T00:18:53.417Z,79.40
2022-11-30T00:21:20.248Z,76.53
2022-11-30T00:23:48.604Z,71.65
2022-11-30T00:26:21.935Z,88.30
2022-11-30T00:28:48.820Z,75.00
2022-11-30T00:31:19.709Z,69.72
2022-11-30T00:33:46.984Z,80.55
2022-11-30T00:36:22.644Z,74.22
2022-11-30T00:38:51.976Z,74.30
2022-11-30T00:41:20.376Z,75.35
2022-11-30T00:43:47.799Z,79.97
2022-11-30T00:46:15.107Z,74.72
2022-11-30T00:48:42.241Z,83.40
2022-11-30T00:51:11.988Z,77.47
2022-11-30T00:53:40.905Z,71.68
2022-11-30T00:56:13.549Z,72.57
2022-11-30T00:58:41.310Z,78.28
2022-11-30T01:01:12.577Z,75.13
2022-11-30T01:03:39.263Z,78.50
2022-11-30T01:06:09.681Z,78.47
2022-11-30T01:08:36.544Z,76.88
2022-11-30T01:11:22.712Z,75.90
2022-11-30T01:13:49.680Z,77.28
2022-11-30T01:16:24.119Z,83.35
2022-11-30T01:18:51.308Z,89.22
2022-11-30T01:21:24.006Z,78.95
2022-11-30T01:23:52.241Z,75.78
2022-11-30T01:26:19.865Z,80.70
2022-11-30T01:28:53.350Z,84.30
2022-11-30T01:31:25.565Z,78.07
2022-11-30T01:33:57.310Z,75.93
2022-11-30T01:36:26.796Z,78.55
2022-11-30T01:38:57.979Z,76.15
2022-11-30T01:41:35.597Z,79.45
2022-11-30T01:44:04.955Z,82.65
2022-11-30T01:47:00.736Z,80.10
2022-11-30T01:49:45.733Z,75.05
2022-11-30T01:52:25.780Z,80.40
2022-11-30T01:55:04.556Z,80.07
2022-11-30T01:57:43.985Z,81.95
2022-11-30T02:00:16.246Z,83.55
2022-11-30T02:03:53.945Z,80.25
2022-11-30T02:06:24.646Z,81.00
2022-11-30T02:08:54.049Z,80.85
2022-11-30T02:11:22.146Z,84.60
2022-11-30T02:14:22.577Z,83.32
2022-11-30T02:17:36.133Z,85.35
2022-11-30T02:20:52.608Z,79.15
2022-11-30T02:23:41.108Z,84.95
2022-11-30T02:26:29.385Z,81.78
2022-11-30T02:29:24.111Z,83.20
2022-11-30T02:32:25.355Z,82.78
2022-11-30T02:34:55.973Z,73.65
2022-11-30T02:37:27.990Z,84.32
2022-11-30T02:39:54.925Z,86.80
2022-11-30T02:42:21.678Z,79.57
2022-11-30T02:44:53.185Z,80.55
2022-11-30T02:47:38.872Z,80.93
2022-11-30T02:50:42.531Z,86.00
2022-11-30T02:53:12.242Z,84.00
2022-11-30T02:55:41.771Z,84.95
2022-11-30T02:58:12.196Z,81.57
2022-11-30T03:00:38.822Z,84.72
2022-11-30T03:03:05.567Z,83.07
2022-11-30T03:05:32.935Z,85.95
2022-11-30T03:07:59.761Z,80.95
2022-11-30T03:10:26.423Z,76.68
2022-11-30T03:12:53.073Z,90.00
2022-11-30T03:15:19.753Z,81.28
2022-11-30T03:17:46.375Z,81.35
2022-11-30T03:20:13.112Z,87.97
2022-11-30T03:22:39.784Z,92.30
2022-11-30T03:25:10.027Z,82.10
2022-11-30T03:27:36.737Z,88.00
2022-11-30T03:30:08.023Z,77.82
2022-11-30T03:32:34.853Z,87.18
2022-11-30T03:35:01.453Z,82.60
2022-11-30T03:37:28.134Z,90.55
2022-11-30T03:39:58.104Z,91.18
2022-11-30T03:42:25.319Z,86.18
2022-11-30T03:44:51.977Z,84.40
2022-11-30T03:47:18.795Z,81.03
2022-11-30T03:49:48.260Z,87.93
2022-11-30T03:52:14.961Z,87.13
2022-11-30T03:54:41.624Z,80.88
2022-11-30T03:57:08.400Z,82.60
2022-11-30T03:59:38.132Z,83.70
2022-11-30T04:02:13.911Z,83.78
2022-11-30T04:04:40.586Z,87.38
2022-11-30T04:07:07.181Z,91.88
2022-11-30T04:09:33.778Z,85.68
2022-11-30T04:12:00.407Z,90.95
2022-11-30T04:14:27.040Z,86.80
2022-11-30T04:16:53.734Z,89.63
2022-11-30T04:19:20.380Z,82.70
2022-11-30T04:21:47.807Z,85.05
2022-11-30T04:24:14.491Z,81.97
2022-11-30T04:26:41.335Z,87.72
2022-11-30T04:29:11.101Z,92.45
2022-11-30T04:31:37.814Z,93.30
2022-11-30T04:34:04.551Z,95.70
2022-11-30T04:36:31.158Z,98.38
2022-11-30T04:39:00.686Z,86.80
2022-11-30T04:41:27.293Z,88.20
2022-11-30T04:43:53.893Z,84.70
2022-11-30T04:46:23.715Z,96.60
2022-11-30T04:48:50.378Z,95.25
2022-11-30T04:51:17.059Z,92.40
2022-11-30T04:53:43.755Z,99.90
2022-11-30T04:56:14.757Z,81.25
2022-11-30T04:58:41.411Z,91.88
2022-11-30T05:01:11.354Z,98.13
2022-11-30T05:03:38.007Z,100.95
2022-11-30T05:06:05.219Z,89.63
2022-11-30T05:08:31.949Z,95.07
2022-11-30T05:10:59.313Z,92.32
2022-11-30T05:13:30.020Z,94.35
2022-11-30T05:16:05.833Z,93.05
2022-11-30T05:18:34.974Z,95.18
2022-11-30T05:21:01.689Z,89.65
2022-11-30T05:23:31.838Z,95.20
2022-11-30T05:26:01.783Z,99.18
2022-11-30T05:28:31.502Z,93.13
2022-11-30T05:31:06.200Z,101.32
2022-11-30T05:33:33.741Z,97.18
2022-11-30T05:36:10.684Z,100.65
2022-11-30T05:38:37.743Z,94.60
2022-11-30T05:41:10.075Z,94.18
2022-11-30T05:43:37.205Z,96.80
2022-11-30T05:46:08.023Z,93.85
2022-11-30T05:48:36.082Z,92.20
2022-11-30T05:51:15.494Z,102.47
2022-11-30T05:53:44.768Z,94.97
2022-11-30T05:56:17.679Z,109.13
2022-11-30T05:58:46.659Z,87.05
2022-11-30T06:01:24.808Z,99.60
2022-11-30T06:25:19.603Z,87.60
2022-11-30T06:27:46.255Z,97.60
2022-11-30T06:30:14.291Z,88.53
2022-11-30T06:32:46.589Z,93.18
2022-11-30T06:40:37.367Z,102.28
2022-11-30T06:45:47.495Z,91.80
2022-11-30T06:48:15.001Z,102.15
2022-11-30T06:53:23.274Z,92.10
2022-11-30T06:55:49.896Z,95.60
2022-11-30T06:58:16.611Z,89.32
2022-11-30T07:11:36.552Z,90.85
2022-11-30T07:14:03.307Z,91.32
2022-11-30T07:19:08.623Z,78.03
2022-11-30T07:21:35.467Z,93.13
2022-11-30T07:24:20.519Z,92.55
2022-11-30T07:26:47.210Z,93.22
2022-11-30T07:31:57.971Z,90.05
2022-11-30T07:34:30.114Z,102.10
2022-11-30T07:45:08.445Z,102.75
2022-11-30T07:55:43.879Z,91.47
2022-11-30T08:27:50.187Z,105.20
2022-11-30T08:30:19.415Z,95.43
2022-11-30T08:32:46.046Z,99.95
2022-11-30T08:35:12.615Z,107.88
2022-11-30T08:37:39.248Z,97.30
2022-11-30T08:40:10.883Z,110.18
2022-11-30T08:42:37.633Z,105.28
2022-11-30T08:45:05.163Z,104.20
2022-11-30T08:47:32.528Z,107.75
2022-11-30T08:50:00.885Z,104.18
2022-11-30T08:52:27.700Z,105.50
2022-11-30T08:54:54.820Z,111.47
2022-11-30T08:57:22.387Z,95.70
2022-11-30T08:59:49.400Z,106.72
2022-11-30T09:02:22.466Z,98.57
2022-11-30T09:04:51.000Z,100.85
2022-11-30T09:07:18.291Z,97.25
2022-11-30T09:09:47.817Z,89.45
2022-11-30T09:12:14.930Z,95.70
2022-11-30T09:14:42.002Z,106.10
2022-11-30T09:17:09.230Z,105.90
2022-11-30T09:19:35.899Z,100.38
2022-11-30T09:22:02.620Z,99.30
2022-11-30T09:24:29.223Z,105.88
2022-11-30T09:26:59.463Z,101.72
2022-11-30T09:29:26.109Z,95.03
2022-11-30T09:31:53.053Z,110.45
2022-11-30T09:34:19.902Z,102.22
2022-11-30T09:36:46.563Z,109.15
2022-11-30T09:39:13.295Z,106.38
2022-11-30T09:42:40.930Z,100.35
2022-11-30T09:45:30.640Z,99.43
2022-11-30T09:48:25.406Z,102.68
2022-11-30T09:50:56.135Z,107.47
2022-11-30T09:53:38.235Z,113.18
2022-11-30T09:56:25.586Z,99.63
2022-11-30T09:59:14.523Z,101.85
2022-11-30T10:01:46.197Z,97.47
2022-11-30T10:04:28.994Z,97.93
2022-11-30T10:07:32.601Z,88.85
2022-11-30T10:10:56.080Z,95.63
2022-11-30T10:14:12.247Z,90.97
2022-11-30T10:17:27.959Z,102.90
2022-11-30T10:20:54.986Z,86.75
2022-11-30T10:24:24.023Z,90.47
2022-11-30T10:26:58.061Z,81.50
2022-11-30T10:29:42.505Z,79.13
2022-11-30T10:32:22.525Z,93.20
2022-11-30T10:35:03.271Z,83.28
2022-11-30T10:37:39.508Z,83.88
2022-11-30T10:40:31.049Z,82.63
2022-11-30T10:43:38.259Z,87.32
2022-11-30T10:46:05.887Z,82.38
2022-11-30T10:48:47.774Z,83.38
2022-11-30T10:51:15.023Z,83.20
2022-11-30T10:53:41.618Z,76.65
2022-11-30T10:56:14.880Z,79.97
2022-11-30T10:59:12.753Z,86.28
2022-11-30T11:01:42.480Z,77.15
2022-11-30T11:04:12.452Z,82.57
2022-11-30T11:06:56.138Z,83.90
2022-11-30T11:09:39.353Z,82.95
2022-11-30T11:12:25.977Z,77.85
2022-11-30T11:15:29.932Z,82.07
2022-11-30T11:18:27.533Z,82.97
2022-11-30T11:21:07.416Z,79.68
2022-11-30T11:23:44.625Z,84.15
2022-11-30T11:26:24.739Z,69.60
2022-11-30T11:28:56.185Z,76.97
2022-11-30T11:31:46.439Z,83.90
2022-11-30T11:34:35.810Z,88.25
2022-11-30T11:37:22.418Z,77.20
2022-11-30T11:40:16.670Z,76.35
2022-11-30T11:42:54.836Z,78.68
2022-11-30T11:45:38.877Z,77.07
2022-11-30T11:48:40.284Z,82.38
2022-11-30T11:51:11.056Z,85.07
2022-11-30T11:54:18.743Z,89.55
2022-11-30T11:56:46.140Z,85.95
2022-11-30T11:59:39.155Z,90.78
2022-11-30T12:02:50.756Z,89.65
2022-11-30T12:05:43.347Z,90.25
2022-11-30T12:08:30.797Z,89.30
2022-11-30T12:11:14.411Z,97.95
2022-11-30T12:13:47.292Z,89.72
2022-11-30T12:16:58.082Z,87.13
2022-11-30T12:19:37.301Z,82.43
2022-11-30T12:22:45.429Z,85.20
2022-11-30T12:25:27.996Z,91.70
2022-11-30T12:28:37.248Z,85.22
2022-11-30T12:31:18.419Z,84.57
2022-11-30T12:34:32.352Z,84.60
2022-11-30T12:37:29.929Z,87.78
2022-11-30T12:40:53.291Z,84.40
2022-11-30T12:43:52.668Z,82.30
2022-11-30T12:46:46.464Z,80.97
2022-11-30T12:49:44.420Z,83.10
2022-11-30T12:52:47.187Z,80.05
2022-11-30T12:56:02.838Z,87.35
2022-11-30T13:01:39.678Z,80.43
2022-11-30T13:04:32.997Z,78.18
2022-11-30T13:07:38.936Z,86.20
2022-11-30T13:10:44.527Z,83.70
2022-11-30T13:13:28.896Z,87.00
2022-11-30T13:16:04.482Z,87.65
2022-11-30T13:18:34.705Z,88.13
2022-11-30T13:21:25.728Z,84.55
2022-11-30T13:24:14.419Z,88.53
2022-11-30T13:27:14.208Z,95.88
2022-11-30T13:30:15.701Z,92.88
2022-11-30T13:32:57.730Z,87.68
2022-11-30T13:35:28.035Z,87.10
2022-11-30T13:38:38.055Z,91.20
2022-11-30T13:41:09.064Z,84.15
2022-11-30T13:43:47.854Z,85.75
2022-11-30T13:46:23.807Z,84.40
2022-11-30T13:49:12.500Z,89.22
2022-11-30T13:51:44.186Z,91.18
2022-11-30T13:54:46.862Z,84.30
2022-11-30T13:57:30.062Z,97.40
2022-11-30T14:00:27.005Z,96.13
2022-11-30T14:02:58.181Z,100.75
2022-11-30T14:05:48.420Z,103.63
2022-11-30T14:08:20.996Z,84.65
2022-11-30T14:11:14.564Z,101.20
2022-11-30T14:13:42.278Z,101.00
2022-11-30T14:16:29.846Z,90.43
2022-11-30T14:19:00.820Z,103.55
2022-11-30T14:21:36.726Z,99.78
2022-11-30T14:24:23.784Z,100.32
2022-11-30T14:26:52.495Z,99.82
2022-11-30T14:29:35.585Z,108.85
2022-11-30T14:32:30.184Z,99.85
2022-11-30T14:35:16.658Z,90.78
2022-11-30T14:38:00.274Z,92.90
2022-11-30T14:40:30.608Z,89.38
2022-11-30T14:43:04.103Z,88.78
2022-11-30T14:45:35.134Z,87.50
2022-11-30T14:48:15.062Z,94.28
2022-11-30T14:50:51.885Z,91.75
2022-11-30T14:53:57.160Z,92.60
2022-11-30T14:59:48.872Z,84.63
2022-11-30T15:02:38.641Z,87.03
2022-11-30T15:05:12.860Z,80.32
2022-11-30T15:07:43.581Z,75.28
2022-11-30T15:13:21.325Z,77.18
2022-11-30T15:15:56.069Z,78.28
2022-11-30T15:18:25.916Z,79.45
2022-11-30T15:21:12.185Z,71.22
2022-11-30T15:23:38.927Z,90.05
2022-11-30T15:26:42.110Z,79.18
2022-11-30T15:29:23.767Z,69.28
2022-11-30T15:32:01.596Z,72.18
2022-11-30T15:34:53.500Z,76.78
2022-11-30T15:37:50.118Z,72.40
2022-11-30T15:40:32.683Z,71.35
2022-11-30T15:43:01.620Z,69.38
2022-11-30T15:45:38.949Z,69.97
2022-11-30T15:48:33.476Z,75.47
2022-11-30T15:51:01.492Z,73.55
2022-11-30T15:53:36.403Z,77.85
2022-11-30T15:56:21.863Z,76.18
2022-11-30T15:59:30.885Z,69.53
2022-11-30T16:02:27.598Z,72.97
2022-11-30T16:04:57.232Z,74.53
2022-11-30T16:07:39.015Z,79.13
2022-11-30T16:10:41.634Z,69.00
2022-11-30T16:13:19.232Z,78.28
2022-11-30T16:15:51.177Z,64.35
2022-11-30T16:18:27.968Z,67.72
2022-11-30T16:21:00.205Z,68.63
2022-11-30T16:23:28.850Z,78.15
2022-11-30T16:25:56.211Z,69.60
2022-11-30T16:28:23.418Z,64.60
2022-11-30T16:30:53.685Z,73.32
2022-11-30T16:33:30.552Z,70.82
2022-11-30T16:36:12.791Z,70.18
2022-11-30T16:38:39.459Z,66.15
2022-11-30T16:41:28.531Z,61.05
2022-11-30T16:43:59.850Z,68.65
2022-11-30T16:46:29.895Z,68.45
2022-11-30T16:48:59.991Z,66.25
2022-11-30T16:51:36.370Z,63.22
2022-11-30T16:54:04.263Z,66.45
2022-11-30T16:56:31.067Z,66.03
2022-11-30T16:58:57.922Z,65.30
2022-11-30T17:01:44.259Z,72.38
2022-11-30T17:04:23.919Z,66.35
2022-11-30T17:07:02.873Z,71.88
2022-11-30T17:09:30.366Z,71.13
2022-11-30T17:11:57.334Z,67.13
2022-11-30T17:14:24.150Z,85.72
2022-11-30T17:41:18.832Z,65.18
2022-11-30T18:05:21.595Z,69.57
2022-11-30T18:07:57.467Z,72.47
2022-11-30T18:21:15.367Z,66.15
2022-11-30T18:53:23.931Z,74.97
2022-11-30T19:06:52.791Z,83.28
2022-11-30T19:09:20.032Z,82.68
2022-11-30T19:11:50.600Z,86.65
2022-11-30T19:38:43.027Z,91.85
2022-11-30T20:29:50.438Z,117.45
2022-11-30T20:45:43.401Z,107.43
2022-11-30T21:07:18.074Z,119.72
2022-11-30T21:12:29.040Z,109.30
2022-11-30T21:14:55.782Z,116.78
2022-11-30T21:22:45.303Z,116.75
2022-11-30T21:25:15.164Z,115.43
2022-11-30T21:27:41.803Z,119.13
2022-11-30T21:30:10.565Z,119.25
2022-11-30T21:32:37.240Z,121.18
2022-11-30T21:35:04.490Z,117.35
2022-11-30T21:37:31.170Z,110.78
2022-11-30T21:39:57.788Z,116.30
2022-11-30T21:42:27.152Z,126.55
2022-11-30T21:44:53.783Z,125.72
2022-11-30T21:47:20.416Z,121.72
2022-11-30T21:49:47.053Z,121.75
2022-11-30T21:52:13.651Z,121.57
2022-11-30T21:54:40.324Z,127.97
2022-11-30T21:57:07.083Z,121.90
2022-11-30T21:59:33.760Z,118.85
2022-11-30T22:02:00.497Z,115.95
2022-11-30T22:04:27.176Z,120.55
2022-11-30T22:06:53.777Z,124.55
2022-11-30T22:09:20.479Z,124.85
2022-11-30T22:11:47.173Z,126.85
2022-11-30T22:14:17.371Z,118.50
2022-11-30T22:16:44.898Z,120.40
2022-11-30T22:19:15.746Z,123.30
2022-11-30T22:21:49.470Z,125.25
2022-11-30T22:24:16.907Z,119.78
2022-11-30T22:26:46.223Z,111.90
2022-11-30T22:29:22.290Z,134.20
2022-11-30T22:31:55.538Z,127.40
2022-11-30T22:34:26.356Z,119.43
2022-11-30T22:36:52.957Z,121.18
2022-11-30T22:39:21.997Z,124.60
2022-11-30T22:41:56.010Z,128.48
2022-11-30T22:46:52.213Z,116.95
2022-11-30T22:49:21.599Z,126.35
2022-11-30T22:51:50.473Z,128.45
2022-11-30T22:54:17.908Z,117.03
2022-11-30T22:56:46.396Z,133.90
2022-11-30T22:59:15.169Z,125.28
2022-11-30T23:01:47.402Z,125.82
2022-11-30T23:04:25.384Z,127.95
2022-11-30T23:06:52.450Z,137.60
2022-11-30T23:09:23.903Z,129.40
2022-11-30T23:11:51.838Z,136.18
2022-11-30T23:14:19.169Z,132.70
2022-11-30T23:16:46.791Z,125.00
2022-11-30T23:19:14.829Z,126.45
2022-11-30T23:21:44.934Z,125.22
2022-11-30T23:24:23.766Z,128.98
2022-11-30T23:26:50.813Z,132.25
2022-11-30T23:29:21.255Z,125.38
2022-11-30T23:31:48.538Z,121.53
2022-11-30T23:34:24.566Z,131.13
2022-11-30T23:36:51.403Z,119.47
2022-11-30T23:39:20.826Z,134.57
2022-11-30T23:41:48.258Z,126.68
2022-11-30T23:44:15.322Z,116.50
2022-11-30T23:46:44.845Z,122.18
2022-11-30T23:49:14.202Z,133.05
2022-11-30T23:51:42.119Z,127.95
2022-11-30T23:54:08.803Z,137.82
2022-11-30T23:56:35.442Z,128.48
2022-11-30T23:59:02.185Z,123.30
